createdAt,value
2023-05-17T00:01:50.216Z,10.50
2023-05-17T00:04:18.671Z,10.50
2023-05-17T00:06:47.105Z,10.60
2023-05-17T00:09:15.801Z,10.60
2023-05-17T00:11:44.245Z,10.60
2023-05-17T00:14:12.893Z,10.60
2023-05-17T00:16:41.352Z,10.70
2023-05-17T00:19:11.372Z,10.70
2023-05-17T00:21:39.983Z,10.70
2023-05-17T00:24:09.306Z,10.70
2023-05-17T00:26:37.898Z,10.70
2023-05-17T00:29:06.464Z,10.70
2023-05-17T00:31:34.949Z,10.80
2023-05-17T00:34:03.466Z,10.80
2023-05-17T00:36:33.398Z,10.80
2023-05-17T00:39:01.810Z,10.90
2023-05-17T00:41:30.288Z,10.70
2023-05-17T00:43:58.774Z,10.80
2023-05-17T00:46:27.209Z,10.80
2023-05-17T00:48:55.674Z,10.80
2023-05-17T00:51:24.330Z,10.70
2023-05-17T00:53:54.472Z,10.70
2023-05-17T00:56:22.998Z,10.80
2023-05-17T00:58:51.657Z,10.70
2023-05-17T01:01:20.373Z,10.70
2023-05-17T01:03:49.094Z,10.60
2023-05-17T01:06:17.665Z,10.70
2023-05-17T01:08:46.264Z,10.70
2023-05-17T01:11:26.965Z,10.70
2023-05-17T01:14:01.228Z,10.70
2023-05-17T01:16:34.589Z,10.70
2023-05-17T01:19:27.498Z,10.80
2023-05-17T01:22:12.504Z,10.80
2023-05-17T01:24:46.687Z,10.70
2023-05-17T01:27:17.259Z,10.60
2023-05-17T01:29:46.156Z,10.60
2023-05-17T01:32:15.355Z,10.60
2023-05-17T01:34:43.887Z,10.50
2023-05-17T01:37:12.363Z,10.40
2023-05-17T01:39:41.661Z,10.50
2023-05-17T01:42:22.453Z,10.60
2023-05-17T01:44:54.249Z,10.60
2023-05-17T01:47:33.894Z,10.60
2023-05-17T01:50:03.323Z,10.60
2023-05-17T01:52:39.420Z,10.60
2023-05-17T01:55:12.161Z,10.60
2023-05-17T01:57:44.362Z,10.70
2023-05-17T02:00:13.375Z,10.60
2023-05-17T02:02:42.143Z,10.60
2023-05-17T02:05:11.049Z,10.70
2023-05-17T02:07:39.700Z,10.60
2023-05-17T02:10:09.142Z,10.60
2023-05-17T02:12:37.685Z,10.60
2023-05-17T02:15:11.284Z,10.70
2023-05-17T02:17:40.518Z,10.70
2023-05-17T02:20:11.830Z,10.70
2023-05-17T02:22:40.973Z,10.70
2023-05-17T02:25:10.425Z,10.70
2023-05-17T02:27:38.888Z,10.70
2023-05-17T02:30:09.732Z,10.70
2023-05-17T02:32:38.875Z,10.70
2023-05-17T02:35:08.447Z,10.70
2023-05-17T02:37:36.917Z,10.70
2023-05-17T02:40:09.450Z,10.70
2023-05-17T02:42:38.390Z,10.60
2023-05-17T02:45:09.292Z,10.70
2023-05-17T02:47:37.929Z,10.70
2023-05-17T02:50:07.259Z,10.80
2023-05-17T02:52:36.033Z,10.80
2023-05-17T02:55:04.640Z,10.80
2023-05-17T02:57:33.164Z,10.80
2023-05-17T03:00:01.594Z,10.80
2023-05-17T03:02:31.509Z,10.80
2023-05-17T03:05:00.050Z,10.80
2023-05-17T03:07:28.482Z,10.80
2023-05-17T03:09:57.068Z,10.70
2023-05-17T03:12:26.476Z,10.70
2023-05-17T03:14:56.396Z,10.80
2023-05-17T03:17:24.910Z,10.80
2023-05-17T03:19:55.339Z,10.80
2023-05-17T03:22:23.999Z,10.80
2023-05-17T03:24:52.496Z,10.80
2023-05-17T03:27:20.999Z,10.80
2023-05-17T03:29:49.826Z,10.80
2023-05-17T03:32:18.377Z,10.80
2023-05-17T03:34:46.915Z,10.80
2023-05-17T03:37:16.825Z,10.80
2023-05-17T03:39:45.243Z,10.70
2023-05-17T03:42:13.641Z,10.80
2023-05-17T03:44:42.234Z,10.80
2023-05-17T03:47:10.932Z,10.80
2023-05-17T03:49:39.357Z,10.80
2023-05-17T03:52:08.086Z,10.80
2023-05-17T03:54:37.921Z,10.80
2023-05-17T03:57:06.844Z,10.80
2023-05-17T03:59:35.353Z,10.90
2023-05-17T04:02:03.810Z,10.90
2023-05-17T04:04:32.294Z,10.90
2023-05-17T04:07:00.750Z,10.80
2023-05-17T04:09:29.213Z,10.80
2023-05-17T04:11:59.038Z,10.80
2023-05-17T04:14:27.551Z,10.80
2023-05-17T04:16:56.061Z,10.90
2023-05-17T04:19:26.710Z,10.90
2023-05-17T04:21:55.250Z,10.90
2023-05-17T04:24:23.772Z,11.00
2023-05-17T04:26:52.364Z,11.00
2023-05-17T04:29:22.241Z,10.90
2023-05-17T04:31:50.766Z,11.00
2023-05-17T04:34:19.477Z,11.00
2023-05-17T04:36:47.946Z,11.00
2023-05-17T04:39:16.937Z,10.90
2023-05-17T04:41:45.397Z,11.00
2023-05-17T04:44:13.813Z,11.10
2023-05-17T04:46:43.985Z,11.10
2023-05-17T04:49:12.485Z,11.20
2023-05-17T04:51:40.960Z,11.20
2023-05-17T04:54:09.394Z,11.20
2023-05-17T04:56:37.931Z,11.30
2023-05-17T04:59:06.399Z,11.30
2023-05-17T05:01:35.338Z,11.40
2023-05-17T05:04:07.150Z,11.40
2023-05-17T05:06:35.997Z,11.40
2023-05-17T05:09:05.314Z,11.40
2023-05-17T05:11:33.797Z,11.30
2023-05-17T05:14:02.337Z,11.40
2023-05-17T05:16:30.797Z,11.40
2023-05-17T05:18:59.657Z,11.20
2023-05-17T05:21:29.672Z,11.20
2023-05-17T05:23:58.130Z,11.30
2023-05-17T05:26:26.637Z,11.40
2023-05-17T05:28:55.130Z,11.40
2023-05-17T05:31:23.600Z,11.30
2023-05-17T05:33:52.218Z,11.30
2023-05-17T05:36:20.680Z,11.40
2023-05-17T05:38:53.814Z,11.50
2023-05-17T05:41:22.231Z,11.60
2023-05-17T05:43:50.658Z,11.70
2023-05-17T05:46:19.084Z,11.80
2023-05-17T05:48:47.643Z,11.80
2023-05-17T05:51:16.093Z,11.80
2023-05-17T05:53:44.535Z,11.90
2023-05-17T05:56:14.532Z,11.90
2023-05-17T05:58:42.940Z,11.90
2023-05-17T06:01:11.459Z,12.00
2023-05-17T06:03:40.010Z,12.00
2023-05-17T06:06:08.692Z,12.20
2023-05-17T06:08:37.135Z,12.30
2023-05-17T06:11:05.689Z,12.40
2023-05-17T06:13:35.590Z,12.40
2023-05-17T06:16:05.771Z,12.50
2023-05-17T06:18:34.523Z,12.60
2023-05-17T06:21:03.100Z,12.60
2023-05-17T06:23:31.649Z,12.60
2023-05-17T06:26:00.102Z,12.60
2023-05-17T06:28:28.603Z,12.70
2023-05-17T06:30:58.466Z,12.70
2023-05-17T06:33:26.969Z,12.70
2023-05-17T06:35:57.878Z,12.80
2023-05-17T06:38:27.084Z,12.70
2023-05-17T06:40:55.717Z,12.80
2023-05-17T06:43:24.329Z,12.80
2023-05-17T06:45:53.024Z,12.90
2023-05-17T06:48:23.119Z,13.00
2023-05-17T06:50:51.771Z,12.90
2023-05-17T06:53:20.210Z,12.90
2023-05-17T06:55:48.681Z,12.90
2023-05-17T06:58:17.270Z,12.90
2023-05-17T07:00:45.821Z,13.00
2023-05-17T07:03:14.517Z,12.90
2023-05-17T07:05:44.511Z,12.90
2023-05-17T07:08:14.991Z,13.00
2023-05-17T07:10:43.627Z,13.10
2023-05-17T07:13:12.099Z,13.10
2023-05-17T07:15:40.547Z,13.20
2023-05-17T07:18:09.123Z,13.20
2023-05-17T07:20:37.662Z,13.30
2023-05-17T07:23:07.818Z,13.30
2023-05-17T07:25:40.658Z,13.30
2023-05-17T07:28:09.259Z,13.40
2023-05-17T07:30:37.682Z,13.50
2023-05-17T07:33:06.211Z,13.60
2023-05-17T07:35:37.758Z,13.60
2023-05-17T07:38:07.662Z,13.70
2023-05-17T07:40:36.113Z,13.70
2023-05-17T07:43:04.558Z,13.80
2023-05-17T07:45:33.064Z,13.80
2023-05-17T07:48:01.623Z,13.80
2023-05-17T07:50:30.388Z,13.80
2023-05-17T07:52:58.896Z,13.90
2023-05-17T07:55:28.953Z,14.00
2023-05-17T07:57:57.646Z,14.00
2023-05-17T08:00:26.716Z,14.00
2023-05-17T08:02:55.312Z,14.00
2023-05-17T08:05:24.193Z,14.00
2023-05-17T08:07:53.500Z,14.00
2023-05-17T08:10:24.972Z,13.90
2023-05-17T08:12:54.900Z,13.90
2023-05-17T08:15:23.533Z,14.00
2023-05-17T08:17:52.097Z,14.00
2023-05-17T08:20:20.630Z,14.10
2023-05-17T08:22:49.140Z,14.10
2023-05-17T08:25:17.629Z,14.10
2023-05-17T08:27:46.048Z,14.10
2023-05-17T08:30:27.900Z,14.10
2023-05-17T08:32:57.433Z,14.10
2023-05-17T08:35:28.912Z,14.10
2023-05-17T08:37:57.716Z,14.10
2023-05-17T08:40:26.317Z,14.10
2023-05-17T08:42:54.972Z,14.20
2023-05-17T08:45:24.871Z,14.20
2023-05-17T08:47:54.510Z,14.20
2023-05-17T08:50:23.857Z,14.20
2023-05-17T08:52:52.754Z,14.30
2023-05-17T08:55:21.496Z,14.30
2023-05-17T08:57:50.942Z,14.30
2023-05-17T09:00:25.161Z,14.30
2023-05-17T09:02:53.725Z,14.20
2023-05-17T09:05:22.703Z,14.10
2023-05-17T09:07:51.223Z,14.10
2023-05-17T09:10:19.729Z,14.10
2023-05-17T09:12:48.338Z,14.10
2023-05-17T09:15:17.843Z,14.00
2023-05-17T09:17:53.273Z,14.00
2023-05-17T09:20:25.744Z,14.10
2023-05-17T09:22:54.247Z,14.10
2023-05-17T09:25:24.502Z,14.00
2023-05-17T09:27:53.961Z,14.00
2023-05-17T09:30:29.365Z,14.00
2023-05-17T09:32:59.860Z,14.00
2023-05-17T09:35:31.963Z,14.00
2023-05-17T09:38:07.859Z,14.00
2023-05-17T09:40:40.282Z,13.80
2023-05-17T09:43:09.360Z,13.90
2023-05-17T09:45:38.133Z,13.90
2023-05-17T09:48:15.333Z,13.70
2023-05-17T09:50:49.380Z,13.60
2023-05-17T09:53:28.347Z,13.60
2023-05-17T09:55:58.672Z,13.60
2023-05-17T09:58:29.018Z,13.60
2023-05-17T10:01:00.663Z,13.60
2023-05-17T10:03:33.312Z,13.60
2023-05-17T10:06:03.955Z,13.70
2023-05-17T10:08:33.527Z,13.70
2023-05-17T10:11:07.108Z,13.80
2023-05-17T10:13:39.877Z,13.70
2023-05-17T10:16:08.954Z,13.70
2023-05-17T10:18:40.034Z,13.70
2023-05-17T10:21:09.170Z,13.70
2023-05-17T10:23:38.995Z,13.80
2023-05-17T10:26:08.127Z,13.80
2023-05-17T10:28:38.389Z,13.90
2023-05-17T10:31:07.207Z,13.80
2023-05-17T10:33:35.783Z,13.90
2023-05-17T10:36:07.427Z,13.90
2023-05-17T10:38:42.306Z,14.00
2023-05-17T10:41:11.935Z,13.90
2023-05-17T10:43:41.939Z,14.00
2023-05-17T10:46:15.782Z,14.00
2023-05-17T10:48:44.918Z,14.10
2023-05-17T10:51:16.762Z,14.10
2023-05-17T10:54:09.089Z,14.30
2023-05-17T10:56:41.537Z,14.40
2023-05-17T10:59:17.546Z,14.40
2023-05-17T11:01:54.359Z,14.50
2023-05-17T11:04:26.025Z,14.40
2023-05-17T11:07:22.258Z,14.40
2023-05-17T11:09:52.542Z,14.50
2023-05-17T11:12:32.782Z,14.50
2023-05-17T11:15:02.348Z,14.50
2023-05-17T11:17:36.341Z,14.50
2023-05-17T11:20:13.171Z,14.60
2023-05-17T11:22:45.330Z,14.60
2023-05-17T11:25:14.991Z,14.60
2023-05-17T11:27:48.018Z,14.60
2023-05-17T11:30:23.075Z,14.50
2023-05-17T11:32:53.610Z,14.50
2023-05-17T11:35:27.858Z,14.40
2023-05-17T11:38:15.062Z,14.30
2023-05-17T11:40:43.848Z,14.30
2023-05-17T11:43:13.386Z,14.30
2023-05-17T11:45:50.122Z,14.20
2023-05-17T11:48:22.984Z,14.10
2023-05-17T11:50:52.785Z,13.90
2023-05-17T11:53:23.133Z,13.90
2023-05-17T11:55:52.760Z,13.90
2023-05-17T11:58:26.840Z,13.70
2023-05-17T12:00:56.643Z,13.60
2023-05-17T12:03:26.366Z,13.70
2023-05-17T12:06:03.586Z,13.60
2023-05-17T12:08:35.105Z,13.40
2023-05-17T12:11:04.249Z,13.40
2023-05-17T12:13:34.274Z,13.40
2023-05-17T12:16:05.786Z,13.30
2023-05-17T12:18:38.826Z,13.20
2023-05-17T12:21:08.863Z,13.00
2023-05-17T12:23:41.110Z,13.20
2023-05-17T12:26:11.792Z,13.30
2023-05-17T12:28:42.426Z,13.30
2023-05-17T12:31:13.432Z,13.40
2023-05-17T12:33:44.184Z,13.30
2023-05-17T12:36:16.670Z,13.20
2023-05-17T12:38:48.653Z,13.10
2023-05-17T12:41:18.208Z,13.10
2023-05-17T12:43:47.869Z,13.20
2023-05-17T12:46:20.470Z,13.30
2023-05-17T12:48:55.450Z,13.30
2023-05-17T12:51:25.662Z,13.40
2023-05-17T12:53:57.568Z,13.30
2023-05-17T12:56:28.747Z,13.20
2023-05-17T12:59:08.479Z,13.10
2023-05-17T13:01:37.457Z,13.10
2023-05-17T13:04:06.459Z,13.10
2023-05-17T13:06:45.843Z,13.00
2023-05-17T13:09:16.571Z,12.90
2023-05-17T13:11:45.153Z,12.90
2023-05-17T13:14:13.740Z,12.80
2023-05-17T13:16:42.955Z,12.80
2023-05-17T13:19:14.880Z,12.60
2023-05-17T13:21:43.463Z,12.60
2023-05-17T13:24:12.042Z,12.60
2023-05-17T13:26:41.877Z,12.70
2023-05-17T13:29:11.680Z,12.70
2023-05-17T13:31:41.718Z,12.70
2023-05-17T13:34:10.200Z,12.70
2023-05-17T13:36:38.655Z,12.50
2023-05-17T13:39:07.080Z,12.50
2023-05-17T13:41:35.524Z,12.50
2023-05-17T13:44:05.437Z,12.50
2023-05-17T13:46:34.180Z,12.50
2023-05-17T13:49:04.484Z,12.50
2023-05-17T13:51:33.179Z,12.50
2023-05-17T13:54:03.753Z,12.40
2023-05-17T13:56:33.468Z,12.40
2023-05-17T13:59:02.170Z,12.30
2023-05-17T14:01:32.151Z,12.30
2023-05-17T14:04:00.890Z,12.20
2023-05-17T14:06:29.933Z,12.20
2023-05-17T14:09:00.797Z,12.10
2023-05-17T14:11:29.294Z,12.10
2023-05-17T14:13:58.034Z,12.00
2023-05-17T14:16:26.647Z,12.00
2023-05-17T14:18:56.750Z,11.90
2023-05-17T14:21:25.317Z,11.80
2023-05-17T14:24:02.983Z,11.80
2023-05-17T14:26:36.817Z,11.70
2023-05-17T14:29:06.284Z,11.70
2023-05-17T14:31:34.859Z,11.80
2023-05-17T14:34:04.803Z,11.80
2023-05-17T14:36:35.670Z,11.80
2023-05-17T14:39:04.193Z,11.90
2023-05-17T14:41:32.721Z,11.90
2023-05-17T14:44:01.262Z,11.90
2023-05-17T14:46:29.778Z,12.00
2023-05-17T14:48:58.274Z,11.90
2023-05-17T14:51:28.151Z,12.00
2023-05-17T14:53:56.774Z,12.00
2023-05-17T14:56:25.458Z,12.00
2023-05-17T14:58:53.922Z,12.20
2023-05-17T15:01:22.555Z,12.20
2023-05-17T15:03:51.807Z,12.10
2023-05-17T15:06:24.701Z,12.20
2023-05-17T15:08:54.992Z,12.30
2023-05-17T15:11:23.658Z,12.20
2023-05-17T15:13:52.218Z,12.20
2023-05-17T15:16:21.059Z,12.20
2023-05-17T15:18:49.653Z,12.20
2023-05-17T15:21:19.049Z,12.20
2023-05-17T15:23:48.612Z,12.20
2023-05-17T15:26:18.602Z,12.20
2023-05-17T15:28:49.838Z,12.30
2023-05-17T15:31:18.352Z,12.30
2023-05-17T15:33:47.097Z,12.40
2023-05-17T15:36:16.450Z,12.30
2023-05-17T15:38:45.124Z,12.30
2023-05-17T15:41:15.976Z,12.30
2023-05-17T15:43:46.045Z,12.30
2023-05-17T15:46:14.555Z,12.30
2023-05-17T15:48:43.183Z,12.20
2023-05-17T15:51:11.766Z,12.30
2023-05-17T15:53:40.466Z,12.30
2023-05-17T15:56:10.220Z,12.40
2023-05-17T15:58:38.933Z,12.40
2023-05-17T16:01:08.811Z,12.40
2023-05-17T16:03:37.294Z,12.30
2023-05-17T16:06:06.154Z,12.20
2023-05-17T16:08:34.679Z,12.30
2023-05-17T16:11:03.662Z,12.20
2023-05-17T16:13:32.245Z,12.30
2023-05-17T16:16:00.816Z,12.30
2023-05-17T16:18:31.810Z,12.30
2023-05-17T16:21:01.212Z,12.40
2023-05-17T16:23:29.775Z,12.30
2023-05-17T16:25:58.650Z,12.40
2023-05-17T16:28:27.205Z,12.30
2023-05-17T16:30:56.182Z,12.30
2023-05-17T16:33:24.856Z,12.30
2023-05-17T16:35:54.943Z,12.40
2023-05-17T16:38:23.434Z,12.30
2023-05-17T16:40:52.111Z,12.40
2023-05-17T16:43:20.625Z,12.40
2023-05-17T16:45:52.228Z,12.30
2023-05-17T16:48:20.868Z,12.10
2023-05-17T16:50:49.683Z,12.10
2023-05-17T16:53:19.565Z,12.20
2023-05-17T16:55:48.241Z,12.20
2023-05-17T16:58:16.773Z,12.10
2023-05-17T17:00:45.259Z,12.20
2023-05-17T17:03:13.811Z,12.10
2023-05-17T17:05:42.304Z,12.10
2023-05-17T17:08:10.783Z,12.10
2023-05-17T17:10:40.687Z,12.00
2023-05-17T17:13:09.744Z,12.00
2023-05-17T17:15:38.298Z,12.00
2023-05-17T17:18:07.124Z,12.00
2023-05-17T17:20:35.972Z,11.90
2023-05-17T17:23:04.466Z,12.00
2023-05-17T17:25:33.176Z,12.00
2023-05-17T17:28:03.063Z,12.10
2023-05-17T17:30:31.915Z,12.10
2023-05-17T17:33:01.156Z,12.10
2023-05-17T17:35:29.919Z,12.20
2023-05-17T17:37:58.409Z,12.10
2023-05-17T17:40:27.524Z,12.10
2023-05-17T17:42:56.177Z,12.00
2023-05-17T17:45:29.868Z,12.00
2023-05-17T17:47:58.342Z,12.00
2023-05-17T17:50:26.916Z,12.00
2023-05-17T17:52:55.502Z,12.00
2023-05-17T17:55:24.433Z,12.00
2023-05-17T17:57:52.930Z,11.90
2023-05-17T18:00:21.865Z,12.00
2023-05-17T18:02:51.838Z,12.00
2023-05-17T18:05:20.799Z,12.00
2023-05-17T18:07:49.326Z,12.00
2023-05-17T18:10:17.791Z,11.90
2023-05-17T18:12:46.233Z,11.90
2023-05-17T18:15:14.719Z,11.90
2023-05-17T18:17:43.401Z,11.80
2023-05-17T18:20:13.420Z,11.70
2023-05-17T18:22:41.908Z,11.70
2023-05-17T18:25:10.937Z,11.80
2023-05-17T18:27:41.434Z,11.80
2023-05-17T18:30:11.941Z,11.80
2023-05-17T18:32:40.562Z,11.80
2023-05-17T18:35:09.977Z,11.80
2023-05-17T18:37:39.858Z,11.80
2023-05-17T18:40:09.458Z,11.70
2023-05-17T18:42:38.006Z,11.60
2023-05-17T18:45:07.878Z,11.60
2023-05-17T18:47:36.369Z,11.60
2023-05-17T18:50:05.114Z,11.60
2023-05-17T18:52:33.569Z,11.60
2023-05-17T18:55:07.435Z,11.60
2023-05-17T18:57:35.987Z,11.50
2023-05-17T19:00:04.964Z,11.50
2023-05-17T19:02:34.749Z,11.50
2023-05-17T19:05:03.346Z,11.50
2023-05-17T19:07:31.784Z,11.50
2023-05-17T19:10:00.222Z,11.40
2023-05-17T19:12:30.086Z,11.40
2023-05-17T19:14:58.542Z,11.40
2023-05-17T19:17:27.036Z,11.30
2023-05-17T19:19:55.590Z,11.30
2023-05-17T19:22:24.156Z,11.20
2023-05-17T19:24:52.662Z,11.10
2023-05-17T19:27:21.145Z,11.20
2023-05-17T19:29:51.685Z,11.20
2023-05-17T19:32:20.622Z,11.20
2023-05-17T19:34:49.237Z,11.30
2023-05-17T19:37:17.782Z,11.30
2023-05-17T19:39:46.254Z,11.10
2023-05-17T19:42:14.836Z,11.10
2023-05-17T19:44:43.283Z,11.10
2023-05-17T19:47:13.115Z,11.20
2023-05-17T19:49:41.612Z,11.20
2023-05-17T19:52:10.328Z,11.20
2023-05-17T19:54:38.865Z,11.20
2023-05-17T19:57:08.009Z,11.20
2023-05-17T19:59:36.504Z,11.20
2023-05-17T20:02:05.154Z,11.20
2023-05-17T20:04:35.092Z,11.20
2023-05-17T20:07:03.752Z,11.20
2023-05-17T20:09:32.305Z,11.20
2023-05-17T20:12:01.033Z,11.20
2023-05-17T20:14:29.553Z,11.10
2023-05-17T20:16:58.115Z,11.10
2023-05-17T20:19:26.787Z,11.10
2023-05-17T20:21:56.708Z,11.10
2023-05-17T20:24:28.940Z,11.10
2023-05-17T20:26:58.466Z,11.10
2023-05-17T20:29:26.966Z,11.20
2023-05-17T20:31:55.509Z,11.20
2023-05-17T20:34:28.174Z,11.20
2023-05-17T20:36:58.415Z,11.20
2023-05-17T20:39:28.112Z,11.10
2023-05-17T20:41:56.858Z,11.10
2023-05-17T20:44:25.899Z,11.10
2023-05-17T20:46:56.685Z,11.10
2023-05-17T20:49:25.190Z,11.00
2023-05-17T20:51:53.621Z,11.00
2023-05-17T20:54:25.410Z,11.00
2023-05-17T20:56:53.871Z,10.90
2023-05-17T20:59:23.712Z,10.90
2023-05-17T21:01:52.317Z,10.90
2023-05-17T21:04:20.910Z,10.90
2023-05-17T21:06:49.416Z,10.90
2023-05-17T21:09:18.959Z,11.00
2023-05-17T21:11:48.810Z,10.90
2023-05-17T21:14:17.327Z,10.90
2023-05-17T21:16:45.881Z,10.90
2023-05-17T21:19:14.516Z,10.90
2023-05-17T21:21:43.029Z,11.00
2023-05-17T21:24:11.501Z,11.00
2023-05-17T21:26:41.246Z,11.00
2023-05-17T21:29:11.293Z,10.90
2023-05-17T21:31:39.908Z,10.70
2023-05-17T21:34:08.514Z,10.50
2023-05-17T21:36:37.116Z,10.50
2023-05-17T21:39:05.568Z,10.60
2023-05-17T21:41:34.090Z,10.70
2023-05-17T21:44:02.525Z,10.60
2023-05-17T21:46:32.537Z,10.60
2023-05-17T21:49:01.104Z,10.70
2023-05-17T21:51:29.580Z,10.50
2023-05-17T21:53:58.032Z,10.50
2023-05-17T21:56:26.707Z,10.60
2023-05-17T21:58:55.246Z,10.60
2023-05-17T22:01:24.183Z,10.50
2023-05-17T22:03:55.122Z,10.60
2023-05-17T22:06:23.950Z,10.50
2023-05-17T22:08:53.217Z,10.40
2023-05-17T22:11:22.873Z,10.50
2023-05-17T22:13:51.812Z,10.50
2023-05-17T22:16:22.470Z,10.60
2023-05-17T22:18:52.452Z,10.60
2023-05-17T22:21:22.654Z,10.50
2023-05-17T22:23:51.121Z,10.50
2023-05-17T22:26:19.833Z,10.60
2023-05-17T22:28:48.341Z,10.60
2023-05-17T22:31:18.519Z,10.60
2023-05-17T22:33:47.400Z,10.50
2023-05-17T22:36:17.824Z,10.40
2023-05-17T22:38:47.885Z,10.50
2023-05-17T22:41:16.448Z,10.60
2023-05-17T22:43:44.978Z,10.60
2023-05-17T22:46:13.433Z,10.70
2023-05-17T22:48:41.878Z,10.50
2023-05-17T22:51:10.512Z,10.50
2023-05-17T22:53:39.121Z,10.50
2023-05-17T22:56:09.181Z,10.50
2023-05-17T22:58:37.621Z,10.40
2023-05-17T23:01:06.322Z,10.40
2023-05-17T23:03:34.993Z,10.40
2023-05-17T23:06:05.172Z,10.40
2023-05-17T23:08:33.906Z,10.50
2023-05-17T23:11:04.900Z,10.50
2023-05-17T23:13:36.356Z,10.50
2023-05-17T23:16:05.549Z,10.40
2023-05-17T23:18:34.264Z,10.40
2023-05-17T23:21:02.755Z,10.50
2023-05-17T23:23:31.429Z,10.40
2023-05-17T23:26:00.038Z,10.30
2023-05-17T23:28:28.528Z,10.30
2023-05-17T23:31:01.278Z,10.40
2023-05-17T23:33:31.120Z,10.30
2023-05-17T23:35:59.752Z,10.30
2023-05-17T23:38:28.204Z,10.20
2023-05-17T23:40:58.252Z,10.20
2023-05-17T23:43:26.892Z,10.20
2023-05-17T23:45:55.351Z,10.20
2023-05-17T23:48:26.179Z,10.30
2023-05-17T23:50:54.808Z,10.30
2023-05-17T23:53:23.744Z,10.20
2023-05-17T23:55:52.579Z,10.20
2023-05-17T23:58:21.414Z,10.20
